Time;durP1;ratioP1;P1;durP2;ratioP2;P2;SDS_P1;SDS_P2;PMS_P1;PMS_P2;Temp;Humidity;BMP_temperature;BMP_pressure;BME280_temperature;BME280_humidity;BME280_pressure;Samples;Min_cycle;Max_cycle;Signal;HPM_P1;HPM_P2
2023/11/03 00:00:10;;;;;;;23.50;21.60;;;;;;;;;;5120765;28;20465;-84
2023/11/03 00:02:38;;;;;;;22.13;20.27;;;;;;;;;;5122171;28;20770;-85
2023/11/03 00:05:10;;;;;;;22.43;20.53;;;;;;;;;;5122143;28;20448;-85
2023/11/03 00:07:39;;;;;;;20.50;19.00;;;;;;;;;;5123307;28;20496;-85
2023/11/03 00:10:09;;;;;;;21.60;19.70;;;;;;;;;;5121951;28;20468;-84
2023/11/03 00:12:36;;;;;;;21.23;19.57;;;;;;;;;;5122291;28;20563;-85
2023/11/03 00:15:04;;;;;;;20.93;19.23;;;;;;;;;;5121719;28;20833;-86
2023/11/03 00:17:31;;;;;;;20.97;19.40;;;;;;;;;;5122474;28;20479;-86
2023/11/03 00:19:58;;;;;;;21.63;20.23;;;;;;;;;;5122440;28;20395;-84
2023/11/03 00:22:26;;;;;;;22.27;20.10;;;;;;;;;;5122744;28;20895;-84
2023/11/03 00:24:55;;;;;;;21.97;20.47;;;;;;;;;;5122445;28;20448;-85
2023/11/03 00:27:23;;;;;;;21.07;19.73;;;;;;;;;;5122440;28;20479;-85
2023/11/03 00:29:50;;;;;;;21.83;20.30;;;;;;;;;;5122391;28;20455;-85
2023/11/03 00:32:18;;;;;;;21.17;19.50;;;;;;;;;;5122320;28;20658;-85
2023/11/03 00:34:45;;;;;;;20.60;19.20;;;;;;;;;;5122036;28;20760;-85
2023/11/03 00:37:12;;;;;;;21.07;19.77;;;;;;;;;;5122426;28;20434;-85
2023/11/03 00:39:41;;;;;;;20.43;19.10;;;;;;;;;;5122319;28;20476;-85
2023/11/03 00:42:09;;;;;;;22.10;20.23;;;;;;;;;;5121558;28;20443;-85
2023/11/03 00:44:37;;;;;;;21.30;20.00;;;;;;;;;;5121808;28;20464;-85
2023/11/03 00:47:05;;;;;;;21.60;19.90;;;;;;;;;;5122173;28;20460;-86
2023/11/03 00:49:32;;;;;;;21.53;20.03;;;;;;;;;;5122798;28;20460;-85
2023/11/03 00:51:59;;;;;;;21.30;19.83;;;;;;;;;;5122846;28;20438;-86
2023/11/03 00:54:26;;;;;;;20.13;18.90;;;;;;;;;;5121769;28;20411;-84
2023/11/03 00:56:53;;;;;;;22.80;21.03;;;;;;;;;;5121964;28;20460;-85
2023/11/03 00:59:22;;;;;;;21.13;19.53;;;;;;;;;;5122192;28;20443;-84
2023/11/03 01:01:49;;;;;;;20.83;19.37;;;;;;;;;;5122228;28;20480;-85
2023/11/03 01:04:16;;;;;;;21.90;20.40;;;;;;;;;;5122267;28;20430;-85
2023/11/03 01:06:43;;;;;;;22.63;20.90;;;;;;;;;;5122226;28;20433;-85
2023/11/03 01:09:10;;;;;;;21.20;19.83;;;;;;;;;;5123066;28;20457;-85
2023/11/03 01:11:37;;;;;;;21.67;20.27;;;;;;;;;;5122449;28;20490;-85
2023/11/03 01:14:05;;;;;;;21.37;20.17;;;;;;;;;;5120829;28;20505;-84
2023/11/03 01:16:34;;;;;;;20.73;19.53;;;;;;;;;;5121671;28;20426;-85
2023/11/03 01:19:04;;;;;;;21.33;19.73;;;;;;;;;;5121987;28;20505;-86
2023/11/03 01:21:31;;;;;;;22.73;20.90;;;;;;;;;;5122587;28;20447;-85
2023/11/03 01:23:58;;;;;;;21.60;20.20;;;;;;;;;;5123381;28;20479;-84
2023/11/03 01:26:25;;;;;;;21.23;19.30;;;;;;;;;;5126438;28;20455;-85
2023/11/03 01:28:52;;;;;;;21.73;19.87;;;;;;;;;;5126748;28;20483;-84
2023/11/03 01:31:21;;;;;;;22.27;20.50;;;;;;;;;;5126775;28;20472;-85
2023/11/03 01:33:50;;;;;;;20.13;18.73;;;;;;;;;;5127097;28;20444;-86
2023/11/03 01:36:17;;;;;;;20.50;19.20;;;;;;;;;;5126894;28;20413;-83
2023/11/03 01:38:44;;;;;;;20.87;19.60;;;;;;;;;;5126671;28;20472;-85
2023/11/03 01:41:13;;;;;;;20.30;19.00;;;;;;;;;;5126391;28;20522;-85
2023/11/03 01:44:01;;;;;;;21.67;20.20;;;;;;;;;;5125898;28;20451;-86
2023/11/03 01:46:28;;;;;;;20.50;19.40;;;;;;;;;;5125300;28;20912;-85
2023/11/03 01:48:56;;;;;;;22.10;20.23;;;;;;;;;;5126095;28;20479;-85
2023/11/03 01:51:24;;;;;;;21.73;19.90;;;;;;;;;;5125986;28;20439;-84
2023/11/03 01:53:51;;;;;;;21.40;19.77;;;;;;;;;;5125859;28;20506;-84
2023/11/03 01:56:19;;;;;;;20.67;19.10;;;;;;;;;;5126357;28;20518;-84
2023/11/03 01:58:46;;;;;;;20.10;18.73;;;;;;;;;;5126465;28;20456;-85
2023/11/03 02:01:13;;;;;;;21.47;19.97;;;;;;;;;;5126118;28;20430;-85
2023/11/03 02:03:40;;;;;;;19.90;18.70;;;;;;;;;;5126118;28;20462;-85
2023/11/03 02:06:09;;;;;;;20.17;18.90;;;;;;;;;;5125571;28;20455;-85
2023/11/03 02:08:36;;;;;;;21.20;19.70;;;;;;;;;;5124982;28;20462;-85
2023/11/03 02:11:03;;;;;;;22.60;20.53;;;;;;;;;;5136535;27;20462;-83
2023/11/03 02:13:30;;;;;;;19.50;18.50;;;;;;;;;;5146371;27;20406;-85
2023/11/03 02:15:58;;;;;;;20.77;19.37;;;;;;;;;;5126315;27;20423;-86
2023/11/03 02:18:25;;;;;;;20.40;19.00;;;;;;;;;;5125753;28;20539;-84
2023/11/03 02:20:52;;;;;;;20.90;19.37;;;;;;;;;;5138001;27;20414;-84
2023/11/03 02:23:20;;;;;;;20.97;19.57;;;;;;;;;;5146135;27;20459;-85
2023/11/03 02:25:47;;;;;;;20.27;18.90;;;;;;;;;;5144217;27;20450;-85
2023/11/03 02:28:14;;;;;;;19.47;18.20;;;;;;;;;;5144584;27;20468;-85
2023/11/03 02:30:41;;;;;;;21.07;19.93;;;;;;;;;;5144805;27;20409;-84
2023/11/03 02:33:09;;;;;;;20.23;18.83;;;;;;;;;;5145250;27;20447;-84
2023/11/03 02:35:36;;;;;;;20.20;18.90;;;;;;;;;;5145226;27;20434;-85
2023/11/03 02:38:03;;;;;;;19.97;18.77;;;;;;;;;;5145584;27;20971;-85
2023/11/03 02:40:32;;;;;;;20.70;19.40;;;;;;;;;;5145001;27;20447;-84
2023/11/03 02:42:59;;;;;;;20.17;18.97;;;;;;;;;;5145590;27;20452;-84
2023/11/03 02:45:26;;;;;;;20.63;19.33;;;;;;;;;;5144598;27;20783;-84
2023/11/03 02:47:53;;;;;;;20.60;19.20;;;;;;;;;;5144099;27;20475;-85
2023/11/03 02:50:20;;;;;;;20.83;19.63;;;;;;;;;;5144333;27;20466;-83
2023/11/03 02:52:47;;;;;;;19.90;18.60;;;;;;;;;;5143280;27;20426;-85
2023/11/03 02:55:14;;;;;;;20.40;18.63;;;;;;;;;;5124710;27;20472;-85
2023/11/03 02:57:42;;;;;;;19.77;18.57;;;;;;;;;;5123381;28;20471;-83
2023/11/03 03:00:12;;;;;;;19.83;18.73;;;;;;;;;;5123732;28;20448;-84
2023/11/03 03:02:39;;;;;;;20.53;18.77;;;;;;;;;;5124079;28;20437;-84
2023/11/03 03:05:07;;;;;;;19.40;18.30;;;;;;;;;;5123313;28;20459;-83
2023/11/03 03:07:34;;;;;;;19.73;18.40;;;;;;;;;;5123779;28;20433;-85
2023/11/03 03:10:01;;;;;;;19.73;18.60;;;;;;;;;;5123138;28;20458;-85
2023/11/03 03:12:28;;;;;;;20.07;18.67;;;;;;;;;;5124021;28;20479;-85
2023/11/03 03:14:57;;;;;;;19.63;18.63;;;;;;;;;;5123078;28;20447;-84
2023/11/03 03:17:24;;;;;;;20.27;18.83;;;;;;;;;;5123221;28;20452;-83
2023/11/03 03:19:51;;;;;;;20.90;19.40;;;;;;;;;;5123363;28;20448;-85
2023/11/03 03:22:18;;;;;;;19.73;18.50;;;;;;;;;;5123468;28;20452;-86
2023/11/03 03:24:45;;;;;;;20.50;19.10;;;;;;;;;;5122973;28;20987;-85
2023/11/03 03:27:12;;;;;;;20.13;18.87;;;;;;;;;;5123017;28;20455;-86
2023/11/03 03:29:39;;;;;;;20.13;19.03;;;;;;;;;;5122846;28;20487;-85
2023/11/03 03:32:08;;;;;;;19.43;18.30;;;;;;;;;;5123003;28;20456;-85
2023/11/03 03:34:35;;;;;;;20.00;18.90;;;;;;;;;;5123176;28;20411;-85
2023/11/03 03:37:02;;;;;;;19.83;18.73;;;;;;;;;;5123061;28;20995;-84
2023/11/03 03:39:29;;;;;;;19.47;18.43;;;;;;;;;;5122976;28;20474;-84
2023/11/03 03:41:56;;;;;;;19.93;18.70;;;;;;;;;;5122932;28;20426;-85
2023/11/03 03:44:23;;;;;;;18.93;17.93;;;;;;;;;;5122650;28;20439;-84
2023/11/03 03:46:51;;;;;;;19.73;18.63;;;;;;;;;;5122042;28;20459;-86
2023/11/03 03:49:20;;;;;;;20.10;19.00;;;;;;;;;;5122901;28;20451;-86
2023/11/03 03:51:47;;;;;;;19.97;18.87;;;;;;;;;;5123422;28;20436;-86
2023/11/03 03:57:17;;;;;;;20.63;19.30;;;;;;;;;;5129590;27;20461;-86
2023/11/03 03:59:44;;;;;;;20.00;19.00;;;;;;;;;;5143580;27;20422;-86
2023/11/03 04:02:12;;;;;;;19.33;18.33;;;;;;;;;;5122262;28;20771;-86
2023/11/03 04:04:41;;;;;;;19.60;18.40;;;;;;;;;;5121665;28;20447;-85
2023/11/03 04:07:08;;;;;;;19.13;18.10;;;;;;;;;;5121543;28;20537;-86
2023/11/03 04:09:35;;;;;;;19.23;18.03;;;;;;;;;;5122100;28;20487;-85
2023/11/03 04:12:02;;;;;;;18.83;17.83;;;;;;;;;;5122715;28;20430;-86
2023/11/03 04:14:29;;;;;;;19.30;18.30;;;;;;;;;;5122205;28;20440;-86
2023/11/03 04:16:56;;;;;;;19.10;18.10;;;;;;;;;;5121381;28;20494;-86
2023/11/03 04:19:23;;;;;;;19.10;18.00;;;;;;;;;;5122706;28;20497;-85
2023/11/03 04:21:52;;;;;;;19.90;18.60;;;;;;;;;;5123297;28;20429;-85
2023/11/03 04:24:19;;;;;;;20.27;18.77;;;;;;;;;;5122692;28;20444;-83
2023/11/03 04:26:47;;;;;;;19.43;18.23;;;;;;;;;;5123497;28;20432;-85
2023/11/03 04:29:14;;;;;;;19.90;18.67;;;;;;;;;;5123602;28;20562;-85
2023/11/03 04:31:42;;;;;;;19.50;18.27;;;;;;;;;;5123345;28;20433;-85
2023/11/03 04:34:10;;;;;;;19.00;18.00;;;;;;;;;;5122571;28;20422;-85
2023/11/03 04:36:37;;;;;;;19.53;18.43;;;;;;;;;;5123286;28;20505;-85
2023/11/03 04:39:05;;;;;;;20.07;19.07;;;;;;;;;;5123660;28;20421;-85
2023/11/03 04:41:32;;;;;;;20.07;18.83;;;;;;;;;;5122953;28;20448;-84
2023/11/03 04:43:59;;;;;;;19.93;18.73;;;;;;;;;;5122720;28;20411;-84
2023/11/03 04:46:28;;;;;;;19.13;18.17;;;;;;;;;;5123749;28;20440;-84
2023/11/03 04:48:57;;;;;;;20.37;19.27;;;;;;;;;;5122516;28;20491;-85
2023/11/03 04:51:25;;;;;;;20.13;18.83;;;;;;;;;;5122928;28;20431;-84
2023/11/03 04:53:52;;;;;;;20.03;18.73;;;;;;;;;;5122852;28;20438;-83
2023/11/03 04:56:20;;;;;;;19.73;18.53;;;;;;;;;;5122649;28;20437;-84
2023/11/03 04:58:48;;;;;;;19.00;18.00;;;;;;;;;;5121391;28;20468;-85
2023/11/03 05:01:15;;;;;;;19.27;18.17;;;;;;;;;;5122936;28;20422;-85
2023/11/03 05:03:42;;;;;;;19.13;18.10;;;;;;;;;;5123281;28;20451;-84
2023/11/03 05:06:10;;;;;;;20.00;18.80;;;;;;;;;;5121914;28;20427;-84
2023/11/03 05:08:38;;;;;;;19.87;18.73;;;;;;;;;;5122058;28;20537;-85
2023/11/03 05:11:05;;;;;;;19.67;18.53;;;;;;;;;;5122157;28;20410;-85
2023/11/03 05:13:33;;;;;;;20.60;19.30;;;;;;;;;;5122891;28;20440;-84
2023/11/03 05:16:04;;;;;;;19.73;18.57;;;;;;;;;;5122219;28;20938;-84
2023/11/03 05:18:31;;;;;;;19.87;18.77;;;;;;;;;;5122438;28;20447;-84
2023/11/03 05:20:58;;;;;;;19.10;18.10;;;;;;;;;;5122877;28;20455;-82
2023/11/03 05:23:26;;;;;;;19.47;18.40;;;;;;;;;;5122377;28;20453;-84
2023/11/03 05:25:53;;;;;;;19.93;18.83;;;;;;;;;;5121563;28;20513;-85
2023/11/03 05:28:23;;;;;;;20.87;18.90;;;;;;;;;;5121907;28;20468;-85
2023/11/03 05:30:51;;;;;;;19.60;18.60;;;;;;;;;;5120578;28;20440;-85
2023/11/03 05:33:18;;;;;;;19.03;17.90;;;;;;;;;;5121619;28;20403;-83
2023/11/03 05:35:45;;;;;;;20.00;18.60;;;;;;;;;;5122081;28;20450;-84
2023/11/03 05:38:14;;;;;;;19.60;18.43;;;;;;;;;;5122092;28;20464;-84
2023/11/03 05:40:41;;;;;;;19.27;18.07;;;;;;;;;;5121215;28;20768;-83
2023/11/03 05:43:08;;;;;;;19.07;17.87;;;;;;;;;;5122240;28;20444;-84
2023/11/03 05:45:34;;;;;;;20.10;18.70;;;;;;;;;;5121752;28;20429;-84
2023/11/03 05:48:04;;;;;;;19.83;18.30;;;;;;;;;;5122012;28;20467;-84
2023/11/03 05:50:31;;;;;;;19.70;18.40;;;;;;;;;;5122048;28;20448;-85
2023/11/03 05:52:58;;;;;;;19.10;18.00;;;;;;;;;;5121983;28;20406;-85
2023/11/03 05:55:26;;;;;;;19.33;18.13;;;;;;;;;;5121333;28;20828;-85
2023/11/03 05:57:53;;;;;;;19.70;18.60;;;;;;;;;;5121694;28;20484;-85
2023/11/03 06:00:21;;;;;;;20.50;19.00;;;;;;;;;;5121220;28;20502;-84
2023/11/03 06:02:50;;;;;;;19.73;18.70;;;;;;;;;;5120695;28;20565;-82
2023/11/03 06:05:18;;;;;;;20.50;19.10;;;;;;;;;;5121184;28;20561;-84
2023/11/03 06:07:46;;;;;;;20.00;18.77;;;;;;;;;;5122050;28;20446;-84
2023/11/03 06:10:14;;;;;;;19.87;18.83;;;;;;;;;;5123319;28;20519;-84
2023/11/03 06:12:42;;;;;;;21.27;19.97;;;;;;;;;;5125978;27;20475;-85
2023/11/03 06:15:09;;;;;;;21.50;20.30;;;;;;;;;;5137568;27;20481;-85
2023/11/03 06:17:36;;;;;;;19.40;18.20;;;;;;;;;;5137208;27;20493;-85
2023/11/03 06:20:03;;;;;;;19.13;17.97;;;;;;;;;;5141054;27;20447;-86
2023/11/03 06:22:32;;;;;;;19.47;18.27;;;;;;;;;;5155181;27;20451;-84
2023/11/03 06:24:59;;;;;;;19.77;18.57;;;;;;;;;;5136676;28;20406;-87
2023/11/03 06:27:26;;;;;;;20.10;18.80;;;;;;;;;;5137337;28;20476;-84
2023/11/03 06:29:54;;;;;;;20.00;18.53;;;;;;;;;;5151845;27;20460;-86
2023/11/03 06:32:21;;;;;;;20.90;19.33;;;;;;;;;;5157895;27;20456;-83
2023/11/03 06:34:48;;;;;;;19.40;18.30;;;;;;;;;;5141167;27;20402;-84
2023/11/03 06:37:15;;;;;;;21.87;20.27;;;;;;;;;;5130652;27;20472;-83
2023/11/03 06:39:43;;;;;;;20.07;18.67;;;;;;;;;;5132173;27;20462;-81
2023/11/03 06:42:10;;;;;;;19.73;18.50;;;;;;;;;;5146174;27;20426;-82
2023/11/03 06:44:38;;;;;;;20.47;19.27;;;;;;;;;;5133576;27;20470;-82
2023/11/03 06:47:05;;;;;;;20.80;19.07;;;;;;;;;;5139494;27;20467;-81
2023/11/03 06:49:33;;;;;;;19.70;18.60;;;;;;;;;;5143068;27;20475;-85
2023/11/03 06:52:00;;;;;;;21.70;19.87;;;;;;;;;;5142909;27;21239;-84
2023/11/03 06:54:27;;;;;;;20.27;19.17;;;;;;;;;;5142076;27;20431;-84
2023/11/03 06:56:55;;;;;;;20.67;19.00;;;;;;;;;;5142053;27;20472;-83
2023/11/03 06:59:23;;;;;;;20.10;18.80;;;;;;;;;;5140743;27;20458;-83
2023/11/03 07:01:50;;;;;;;21.13;19.40;;;;;;;;;;5140211;27;20418;-83
2023/11/03 07:04:18;;;;;;;20.87;19.37;;;;;;;;;;5138310;27;20449;-83
2023/11/03 07:06:45;;;;;;;21.73;20.23;;;;;;;;;;5139316;27;20398;-83
2023/11/03 07:09:12;;;;;;;20.50;19.10;;;;;;;;;;5139941;27;20418;-82
2023/11/03 07:11:39;;;;;;;20.77;19.10;;;;;;;;;;5120408;27;20466;-83
2023/11/03 07:14:07;;;;;;;21.27;19.67;;;;;;;;;;5117526;28;20431;-83
2023/11/03 07:16:35;;;;;;;20.87;19.53;;;;;;;;;;5123528;28;20421;-83
2023/11/03 07:19:02;;;;;;;22.67;20.37;;;;;;;;;;5123185;28;20437;-82
2023/11/03 07:21:29;;;;;;;22.10;20.27;;;;;;;;;;5121800;28;20464;-85
2023/11/03 07:23:56;;;;;;;20.57;19.13;;;;;;;;;;5123270;28;20447;-84
2023/11/03 07:26:24;;;;;;;20.53;18.90;;;;;;;;;;5123711;28;20432;-85
2023/11/03 07:28:51;;;;;;;20.43;19.03;;;;;;;;;;5122690;28;20476;-83
2023/11/03 07:31:19;;;;;;;20.93;19.43;;;;;;;;;;5120738;28;21010;-84
2023/11/03 07:33:46;;;;;;;22.77;20.60;;;;;;;;;;5120312;28;20436;-84
2023/11/03 07:36:13;;;;;;;21.77;19.97;;;;;;;;;;5119786;28;20459;-84
2023/11/03 07:38:41;;;;;;;19.73;18.63;;;;;;;;;;5120206;28;20471;-84
2023/11/03 07:41:08;;;;;;;19.20;18.00;;;;;;;;;;5132846;27;20451;-84
2023/11/03 07:43:36;;;;;;;20.53;18.93;;;;;;;;;;5135450;27;20502;-84
2023/11/03 07:46:03;;;;;;;20.83;19.27;;;;;;;;;;5121375;28;20426;-84
2023/11/03 07:48:31;;;;;;;19.83;18.53;;;;;;;;;;5121964;28;20483;-83
2023/11/03 07:50:59;;;;;;;20.20;18.63;;;;;;;;;;5117375;28;20524;-83
2023/11/03 07:53:27;;;;;;;20.40;18.90;;;;;;;;;;5114587;28;20918;-83
2023/11/03 07:55:54;;;;;;;22.33;20.73;;;;;;;;;;5113724;28;20423;-83
2023/11/03 07:58:21;;;;;;;21.43;19.93;;;;;;;;;;5114180;28;20478;-83
2023/11/03 08:00:49;;;;;;;21.50;19.77;;;;;;;;;;5119442;27;20414;-83
2023/11/03 08:03:16;;;;;;;22.40;20.80;;;;;;;;;;5136413;27;20433;-82
2023/11/03 08:05:45;;;;;;;23.20;21.20;;;;;;;;;;5135650;27;20402;-83
2023/11/03 08:08:15;;;;;;;22.47;20.10;;;;;;;;;;5135661;27;20462;-82
2023/11/03 08:10:42;;;;;;;20.30;18.70;;;;;;;;;;5137878;27;20556;-82
2023/11/03 08:13:09;;;;;;;21.03;19.40;;;;;;;;;;5136820;27;20406;-77
2023/11/03 08:15:37;;;;;;;21.00;19.27;;;;;;;;;;5133705;27;20451;-79
2023/11/03 08:18:05;;;;;;;19.87;18.57;;;;;;;;;;5140360;27;20489;-82
2023/11/03 08:20:33;;;;;;;19.73;18.50;;;;;;;;;;5139886;27;20425;-82
2023/11/03 08:23:01;;;;;;;20.97;19.63;;;;;;;;;;5139307;27;20439;-82
2023/11/03 08:25:29;;;;;;;20.53;19.20;;;;;;;;;;5139745;27;20435;-81
2023/11/03 08:27:57;;;;;;;20.40;18.93;;;;;;;;;;5139287;27;20466;-81
2023/11/03 08:30:24;;;;;;;19.80;18.50;;;;;;;;;;5139210;27;20475;-80
2023/11/03 08:32:52;;;;;;;19.90;18.70;;;;;;;;;;5136304;27;20939;-82
2023/11/03 08:35:20;;;;;;;21.00;19.60;;;;;;;;;;5134667;27;20421;-84
2023/11/03 08:37:47;;;;;;;21.30;20.00;;;;;;;;;;5115944;28;20501;-85
2023/11/03 08:40:16;;;;;;;22.30;20.90;;;;;;;;;;5124315;27;20452;-85
2023/11/03 08:42:44;;;;;;;23.17;21.50;;;;;;;;;;5138024;27;20449;-85
2023/11/03 08:45:11;;;;;;;22.57;20.63;;;;;;;;;;5121975;27;20497;-84
2023/11/03 08:47:41;;;;;;;21.10;20.00;;;;;;;;;;5133940;27;20433;-85
2023/11/03 08:50:08;;;;;;;21.70;20.30;;;;;;;;;;5137107;27;20464;-85
2023/11/03 08:52:36;;;;;;;22.43;20.73;;;;;;;;;;5136934;27;20427;-85
2023/11/03 08:55:06;;;;;;;22.40;21.03;;;;;;;;;;5136786;27;20745;-85
2023/11/03 08:57:35;;;;;;;21.20;19.50;;;;;;;;;;5137574;27;20465;-86
2023/11/03 09:00:08;;;;;;;21.10;19.67;;;;;;;;;;5137862;27;20443;-85
2023/11/03 09:02:35;;;;;;;21.70;20.20;;;;;;;;;;5138303;27;20416;-85
2023/11/03 09:05:02;;;;;;;22.83;21.07;;;;;;;;;;5137712;27;20882;-85
2023/11/03 09:07:29;;;;;;;22.37;20.27;;;;;;;;;;5138949;27;20445;-85
2023/11/03 09:09:56;;;;;;;20.67;19.57;;;;;;;;;;5120445;27;20521;-84
2023/11/03 09:12:23;;;;;;;22.40;20.43;;;;;;;;;;5117422;28;20456;-84
2023/11/03 09:14:53;;;;;;;21.13;19.73;;;;;;;;;;5118216;28;20471;-85
2023/11/03 09:17:20;;;;;;;21.20;19.40;;;;;;;;;;5117903;28;20546;-85
2023/11/03 09:19:47;;;;;;;19.80;18.60;;;;;;;;;;5118171;28;20456;-85
2023/11/03 09:22:14;;;;;;;19.93;18.53;;;;;;;;;;5117691;28;20419;-85
2023/11/03 09:24:41;;;;;;;19.50;18.00;;;;;;;;;;5116800;28;20445;-85
2023/11/03 09:27:08;;;;;;;19.70;18.30;;;;;;;;;;5118377;28;20443;-85
2023/11/03 09:29:36;;;;;;;20.27;18.70;;;;;;;;;;5120028;28;20427;-85
2023/11/03 09:32:04;;;;;;;20.93;19.50;;;;;;;;;;5118582;28;20818;-84
2023/11/03 09:34:31;;;;;;;19.93;18.73;;;;;;;;;;5117607;28;20414;-85
2023/11/03 09:37:02;;;;;;;20.63;19.00;;;;;;;;;;5117961;28;21101;-84
2023/11/03 09:39:30;;;;;;;21.77;19.83;;;;;;;;;;5116983;28;20459;-87
2023/11/03 09:42:00;;;;;;;19.90;18.77;;;;;;;;;;5117154;28;20435;-86
2023/11/03 09:44:28;;;;;;;21.33;19.50;;;;;;;;;;5123633;27;21148;-84
2023/11/03 09:46:55;;;;;;;19.13;18.13;;;;;;;;;;5121638;28;20480;-85
2023/11/03 09:49:23;;;;;;;20.60;18.90;;;;;;;;;;5122657;28;20440;-85
2023/11/03 09:51:51;;;;;;;19.70;18.30;;;;;;;;;;5116790;28;20478;-78
2023/11/03 09:54:19;;;;;;;20.40;18.97;;;;;;;;;;5116666;28;20919;-80
2023/11/03 09:56:46;;;;;;;20.20;18.93;;;;;;;;;;5118648;28;20441;-86
2023/11/03 09:59:14;;;;;;;21.10;19.37;;;;;;;;;;5122149;28;20443;-85
2023/11/03 10:01:41;;;;;;;23.57;21.67;;;;;;;;;;5121744;28;20834;-88
2023/11/03 10:04:09;;;;;;;21.60;20.10;;;;;;;;;;5121475;28;20426;-80
2023/11/03 10:06:37;;;;;;;21.87;19.93;;;;;;;;;;5120217;28;20446;-81
2023/11/03 10:09:05;;;;;;;21.13;19.73;;;;;;;;;;5122349;28;20457;-84
2023/11/03 10:11:32;;;;;;;21.17;19.50;;;;;;;;;;5120926;28;21150;-79
2023/11/03 10:13:59;;;;;;;19.80;18.60;;;;;;;;;;5114822;28;20452;-78
2023/11/03 10:16:27;;;;;;;20.37;18.97;;;;;;;;;;5114216;28;20419;-79
2023/11/03 10:18:54;;;;;;;21.20;19.80;;;;;;;;;;5114605;28;20472;-78
2023/11/03 10:21:23;;;;;;;22.43;20.87;;;;;;;;;;5114605;28;20936;-78
2023/11/03 10:23:51;;;;;;;21.37;19.87;;;;;;;;;;5114029;28;20448;-78
2023/11/03 10:26:18;;;;;;;21.23;19.83;;;;;;;;;;5115434;28;20425;-77
2023/11/03 10:28:46;;;;;;;21.10;19.60;;;;;;;;;;5114024;28;20471;-79
2023/11/03 10:31:14;;;;;;;20.67;19.37;;;;;;;;;;5114292;28;20503;-79
2023/11/03 10:33:42;;;;;;;20.67;19.17;;;;;;;;;;5114528;28;20505;-79
2023/11/03 10:36:09;;;;;;;21.57;19.67;;;;;;;;;;5113677;28;20433;-77
2023/11/03 10:38:36;;;;;;;19.73;18.63;;;;;;;;;;5114392;28;20483;-78
2023/11/03 10:41:08;;;;;;;20.63;19.43;;;;;;;;;;5115306;28;20433;-86
2023/11/03 10:43:39;;;;;;;22.80;20.47;;;;;;;;;;5124549;28;20403;-86
2023/11/03 10:46:07;;;;;;;22.07;20.63;;;;;;;;;;5119969;28;20491;-80
2023/11/03 10:48:38;;;;;;;20.47;19.07;;;;;;;;;;5118623;28;20442;-79
2023/11/03 10:51:09;;;;;;;21.80;20.40;;;;;;;;;;5120996;28;20475;-86
2023/11/03 10:53:40;;;;;;;23.33;21.23;;;;;;;;;;5120375;28;20440;-87
2023/11/03 10:56:10;;;;;;;21.20;19.90;;;;;;;;;;5117567;28;20455;-79
2023/11/03 10:58:38;;;;;;;21.40;19.73;;;;;;;;;;5119238;28;20464;-79
2023/11/03 11:01:08;;;;;;;21.80;20.30;;;;;;;;;;5117186;28;20424;-80
2023/11/03 11:03:41;;;;;;;22.70;21.30;;;;;;;;;;5117826;28;20503;-78
2023/11/03 11:06:12;;;;;;;22.60;20.80;;;;;;;;;;5118400;28;20447;-78
2023/11/03 11:08:41;;;;;;;24.50;22.90;;;;;;;;;;5119161;28;20439;-79
2023/11/03 11:11:10;;;;;;;22.30;20.80;;;;;;;;;;5121049;27;20548;-79
2023/11/03 11:13:37;;;;;;;22.27;20.67;;;;;;;;;;5137878;27;20491;-80
2023/11/03 11:16:05;;;;;;;22.70;21.00;;;;;;;;;;5132479;27;20483;-80
2023/11/03 11:18:33;;;;;;;22.13;20.60;;;;;;;;;;5117218;28;20446;-79
2023/11/03 11:21:03;;;;;;;21.37;20.07;;;;;;;;;;5116691;28;20748;-80
2023/11/03 11:23:33;;;;;;;21.60;20.20;;;;;;;;;;5117791;28;20456;-79
2023/11/03 11:26:01;;;;;;;21.87;20.47;;;;;;;;;;5116127;28;20447;-80
2023/11/03 11:28:33;;;;;;;23.30;21.20;;;;;;;;;;5119539;28;20438;-78
2023/11/03 11:31:01;;;;;;;22.17;20.77;;;;;;;;;;5119145;28;20475;-79
2023/11/03 11:33:29;;;;;;;22.10;20.53;;;;;;;;;;5114130;28;20471;-78
2023/11/03 11:35:56;;;;;;;22.23;20.43;;;;;;;;;;5113280;28;20529;-77
2023/11/03 11:38:26;;;;;;;22.70;21.00;;;;;;;;;;5113485;28;20931;-79
2023/11/03 11:40:54;;;;;;;23.20;20.90;;;;;;;;;;5114072;28;20992;-79
2023/11/03 11:43:24;;;;;;;21.97;20.27;;;;;;;;;;5116862;28;20523;-80
2023/11/03 11:45:53;;;;;;;22.60;20.60;;;;;;;;;;5114923;28;20426;-77
2023/11/03 11:48:21;;;;;;;26.03;24.07;;;;;;;;;;5113448;28;21000;-78
2023/11/03 11:50:48;;;;;;;21.93;20.50;;;;;;;;;;5113957;28;20462;-78
2023/11/03 11:53:15;;;;;;;22.33;20.33;;;;;;;;;;5117219;28;21005;-79
2023/11/03 11:55:43;;;;;;;22.53;20.70;;;;;;;;;;5116814;28;20440;-80
2023/11/03 11:58:11;;;;;;;21.77;20.13;;;;;;;;;;5115550;27;20491;-79
2023/11/03 12:00:39;;;;;;;21.97;20.20;;;;;;;;;;5115424;28;20431;-78
2023/11/03 12:03:09;;;;;;;21.40;20.00;;;;;;;;;;5115557;28;20444;-78
2023/11/03 12:05:36;;;;;;;22.50;20.40;;;;;;;;;;5115486;28;20475;-79
2023/11/03 12:08:04;;;;;;;22.00;20.43;;;;;;;;;;5118891;28;20468;-86
2023/11/03 12:10:33;;;;;;;24.43;21.57;;;;;;;;;;5120990;28;20451;-86
2023/11/03 12:13:00;;;;;;;21.13;19.70;;;;;;;;;;5120073;28;20502;-85
2023/11/03 12:15:28;;;;;;;25.33;21.57;;;;;;;;;;5119733;28;21269;-85
2023/11/03 12:17:55;;;;;;;22.23;20.67;;;;;;;;;;5120256;28;20460;-85
2023/11/03 12:20:23;;;;;;;22.70;20.83;;;;;;;;;;5122631;27;20442;-87
2023/11/03 12:22:51;;;;;;;21.37;19.80;;;;;;;;;;5139399;27;20439;-86
2023/11/03 12:25:19;;;;;;;23.50;21.60;;;;;;;;;;5139508;27;20454;-85
2023/11/03 12:27:53;;;;;;;22.43;20.70;;;;;;;;;;5140254;27;20448;-86
2023/11/03 12:30:21;;;;;;;21.97;20.57;;;;;;;;;;5136708;27;20423;-78
2023/11/03 12:32:49;;;;;;;22.50;20.90;;;;;;;;;;5136494;27;20483;-79
2023/11/03 12:35:16;;;;;;;21.70;19.90;;;;;;;;;;5132061;27;20456;-85
2023/11/03 12:37:45;;;;;;;20.97;19.67;;;;;;;;;;5142572;27;20527;-85
2023/11/03 12:40:21;;;;;;;23.27;20.93;;;;;;;;;;5146623;27;20475;-86
2023/11/03 12:42:48;;;;;;;22.60;20.67;;;;;;;;;;5125761;28;20490;-86
2023/11/03 12:45:18;;;;;;;21.87;20.10;;;;;;;;;;5125272;28;20428;-86
2023/11/03 12:47:46;;;;;;;23.23;21.10;;;;;;;;;;5125567;28;20502;-86
2023/11/03 12:50:16;;;;;;;21.47;20.10;;;;;;;;;;5126944;28;20482;-86
2023/11/03 12:52:45;;;;;;;22.50;20.70;;;;;;;;;;5134519;27;20479;-85
2023/11/03 12:55:12;;;;;;;23.03;21.33;;;;;;;;;;5148422;27;20414;-86
2023/11/03 12:57:41;;;;;;;22.17;20.20;;;;;;;;;;5148076;27;20453;-84
2023/11/03 13:00:10;;;;;;;22.53;20.70;;;;;;;;;;5147885;27;20435;-86
2023/11/03 13:02:40;;;;;;;22.43;19.90;;;;;;;;;;5145945;27;20435;-86
2023/11/03 13:05:09;;;;;;;21.27;19.73;;;;;;;;;;5142407;27;20807;-83
2023/11/03 13:07:37;;;;;;;21.03;19.60;;;;;;;;;;5141292;27;20475;-86
2023/11/03 13:10:05;;;;;;;22.10;20.40;;;;;;;;;;5144655;27;20427;-83
2023/11/03 13:12:34;;;;;;;22.13;20.47;;;;;;;;;;5144037;27;20479;-84
2023/11/03 13:15:01;;;;;;;21.87;20.23;;;;;;;;;;5145994;27;20451;-85
2023/11/03 13:17:29;;;;;;;23.40;21.40;;;;;;;;;;5145733;27;20494;-84
2023/11/03 13:19:56;;;;;;;21.77;20.07;;;;;;;;;;5144615;27;20440;-80
2023/11/03 13:22:23;;;;;;;22.57;20.63;;;;;;;;;;5132820;27;20916;-79
2023/11/03 13:24:50;;;;;;;23.97;21.63;;;;;;;;;;5117514;28;20962;-78
2023/11/03 13:27:19;;;;;;;21.90;20.50;;;;;;;;;;5129025;28;20470;-78
2023/11/03 13:29:46;;;;;;;23.50;21.23;;;;;;;;;;5132923;28;21065;-78
2023/11/03 13:32:13;;;;;;;21.50;19.90;;;;;;;;;;5120607;28;20461;-78
2023/11/03 13:34:40;;;;;;;22.67;21.10;;;;;;;;;;5132841;28;20424;-79
2023/11/03 13:37:09;;;;;;;21.23;19.77;;;;;;;;;;5133300;28;20463;-79
2023/11/03 13:39:36;;;;;;;21.60;20.00;;;;;;;;;;5132974;28;20482;-78
2023/11/03 13:42:03;;;;;;;22.70;20.80;;;;;;;;;;5133361;28;20454;-79
2023/11/03 13:44:32;;;;;;;21.33;19.90;;;;;;;;;;5132266;28;20841;-78
2023/11/03 13:46:59;;;;;;;22.00;20.40;;;;;;;;;;5133236;28;20509;-78
2023/11/03 13:49:26;;;;;;;23.40;21.70;;;;;;;;;;5133017;28;20454;-78
2023/11/03 13:51:53;;;;;;;22.47;20.83;;;;;;;;;;5132906;28;20482;-79
2023/11/03 13:54:22;;;;;;;23.33;21.30;;;;;;;;;;5132636;28;20443;-78
2023/11/03 13:56:49;;;;;;;21.70;20.23;;;;;;;;;;5133339;28;20471;-79
2023/11/03 13:59:16;;;;;;;21.97;20.47;;;;;;;;;;5133768;28;20439;-79
2023/11/03 14:01:44;;;;;;;21.00;19.70;;;;;;;;;;5132853;28;20446;-79
2023/11/03 14:04:11;;;;;;;22.33;20.47;;;;;;;;;;5122550;28;20444;-79
2023/11/03 14:06:38;;;;;;;23.30;21.30;;;;;;;;;;5113623;28;20439;-78
2023/11/03 14:09:07;;;;;;;22.47;20.60;;;;;;;;;;5113663;28;20436;-85
2023/11/03 14:11:35;;;;;;;22.90;20.90;;;;;;;;;;5119255;28;20491;-82
2023/11/03 14:14:02;;;;;;;22.23;20.73;;;;;;;;;;5120000;28;20451;-81
2023/11/03 14:16:29;;;;;;;21.37;19.87;;;;;;;;;;5121627;28;20507;-82
2023/11/03 14:18:57;;;;;;;21.47;20.00;;;;;;;;;;5118975;28;20837;-81
2023/11/03 14:21:26;;;;;;;22.73;20.97;;;;;;;;;;5137470;28;20431;-80